sensor_id;sensor_type;location;lat;lon;timestamp;noise_LAeq;noise_LA_min;noise_LA_max;noise_LA01;noise_LA95
57439;Laerm;43282;47.188;8.896;2023-02-01T00:01:17;42.51;38.81;48.48;;
57439;Laerm;43282;47.188;8.896;2023-02-01T00:03:42;42.20;38.52;46.07;;
57439;Laerm;43282;47.188;8.896;2023-02-01T00:06:08;43.09;38.81;53.96;;
57439;Laerm;43282;47.188;8.896;2023-02-01T00:08:33;44.65;39.23;54.67;;
57439;Laerm;43282;47.188;8.896;2023-02-01T00:11:07;52.59;40.43;68.27;;
57439;Laerm;43282;47.188;8.896;2023-02-01T00:13:33;43.66;35.04;56.76;;
57439;Laerm;43282;47.188;8.896;2023-02-01T00:16:05;44.94;39.08;56.95;;
57439;Laerm;43282;47.188;8.896;2023-02-01T00:18:31;41.68;39.70;51.13;;
57439;Laerm;43282;47.188;8.896;2023-02-01T00:20:56;46.21;39.58;57.20;;
57439;Laerm;43282;47.188;8.896;2023-02-01T00:23:21;47.38;39.92;61.30;;
57439;Laerm;43282;47.188;8.896;2023-02-01T00:25:47;43.92;38.67;52.65;;
57439;Laerm;43282;47.188;8.896;2023-02-01T00:28:12;42.31;38.81;53.21;;
57439;Laerm;43282;47.188;8.896;2023-02-01T00:30:38;42.37;39.34;54.33;;
57439;Laerm;43282;47.188;8.896;2023-02-01T00:33:03;41.89;39.34;47.98;;
57439;Laerm;43282;47.188;8.896;2023-02-01T00:35:28;47.63;40.03;63.36;;
57439;Laerm;43282;47.188;8.896;2023-02-01T00:37:54;42.07;38.67;51.77;;
57439;Laerm;43282;47.188;8.896;2023-02-01T00:40:19;41.73;38.95;46.18;;
57439;Laerm;43282;47.188;8.896;2023-02-01T00:42:44;41.11;38.95;46.50;;
57439;Laerm;43282;47.188;8.896;2023-02-01T00:45:10;42.01;39.58;45.75;;
57439;Laerm;43282;47.188;8.896;2023-02-01T00:47:35;47.16;38.37;63.85;;
57439;Laerm;43282;47.188;8.896;2023-02-01T00:50:00;41.94;38.81;43.86;;
57439;Laerm;43282;47.188;8.896;2023-02-01T00:52:26;43.75;39.58;51.88;;
57439;Laerm;43282;47.188;8.896;2023-02-01T00:54:51;41.92;39.21;43.81;;
57439;Laerm;43282;47.188;8.896;2023-02-01T00:57:16;42.34;39.34;48.64;;
57439;Laerm;43282;47.188;8.896;2023-02-01T00:59:41;41.90;35.31;51.03;;
57439;Laerm;43282;47.188;8.896;2023-02-01T01:02:07;44.33;38.37;57.33;;
57439;Laerm;43282;47.188;8.896;2023-02-01T01:04:32;42.25;38.21;63.88;;
57439;Laerm;43282;47.188;8.896;2023-02-01T01:06:58;41.57;37.32;49.58;;
57439;Laerm;43282;47.188;8.896;2023-02-01T01:09:23;41.24;36.91;50.98;;
57439;Laerm;43282;47.188;8.896;2023-02-01T01:11:48;41.96;36.45;54.98;;
57439;Laerm;43282;47.188;8.896;2023-02-01T01:14:16;45.88;36.69;62.40;;
57439;Laerm;43282;47.188;8.896;2023-02-01T01:16:41;41.69;36.20;53.36;;
57439;Laerm;43282;47.188;8.896;2023-02-01T01:19:06;41.54;36.20;49.98;;
57439;Laerm;43282;47.188;8.896;2023-02-01T01:21:32;44.71;36.91;55.77;;
57439;Laerm;43282;47.188;8.896;2023-02-01T01:23:57;44.88;36.69;55.88;;
57439;Laerm;43282;47.188;8.896;2023-02-01T01:26:24;40.48;35.94;46.84;;
57439;Laerm;43282;47.188;8.896;2023-02-01T01:28:50;46.13;34.69;63.14;;
57439;Laerm;43282;47.188;8.896;2023-02-01T01:31:16;46.50;36.91;63.38;;
57439;Laerm;43282;47.188;8.896;2023-02-01T01:33:41;44.15;37.70;60.93;;
57439;Laerm;43282;47.188;8.896;2023-02-01T01:36:09;50.20;38.67;68.46;;
57439;Laerm;43282;47.188;8.896;2023-02-01T01:38:37;44.40;39.58;52.51;;
57439;Laerm;43282;47.188;8.896;2023-02-01T01:41:03;44.02;39.21;55.85;;
57439;Laerm;43282;47.188;8.896;2023-02-01T01:43:46;44.64;38.37;60.14;;
57439;Laerm;43282;47.188;8.896;2023-02-01T01:46:15;50.86;38.05;67.21;;
57439;Laerm;43282;47.188;8.896;2023-02-01T01:48:40;44.94;36.69;59.17;;
57439;Laerm;43282;47.188;8.896;2023-02-01T01:51:09;47.98;38.37;63.45;;
57439;Laerm;43282;47.188;8.896;2023-02-01T01:53:40;45.26;38.05;58.74;;
57439;Laerm;43282;47.188;8.896;2023-02-01T01:56:07;48.55;37.32;64.97;;
57439;Laerm;43282;47.188;8.896;2023-02-01T01:58:32;44.67;35.94;56.61;;
57439;Laerm;43282;47.188;8.896;2023-02-01T02:00:59;46.43;39.46;59.68;;
57439;Laerm;43282;47.188;8.896;2023-02-01T02:03:26;48.70;38.81;66.56;;
57439;Laerm;43282;47.188;8.896;2023-02-01T02:05:53;42.48;38.52;51.24;;
57439;Laerm;43282;47.188;8.896;2023-02-01T02:08:20;45.30;39.21;59.85;;
57439;Laerm;43282;47.188;8.896;2023-02-01T02:10:49;46.64;38.47;63.16;;
57439;Laerm;43282;47.188;8.896;2023-02-01T02:13:31;45.18;38.52;57.37;;
57439;Laerm;43282;47.188;8.896;2023-02-01T02:21:14;43.97;39.34;60.57;;
57439;Laerm;43282;47.188;8.896;2023-02-01T02:23:53;42.30;39.08;48.87;;
57439;Laerm;43282;47.188;8.896;2023-02-01T02:26:26;42.68;39.70;47.98;;
57439;Laerm;43282;47.188;8.896;2023-02-01T02:31:55;47.60;38.95;64.81;;
57439;Laerm;43282;47.188;8.896;2023-02-01T02:34:57;42.01;37.52;52.06;;
57439;Laerm;43282;47.188;8.896;2023-02-01T02:37:19;42.93;38.67;53.32;;
57439;Laerm;43282;47.188;8.896;2023-02-01T02:40:01;43.49;36.91;54.09;;
57439;Laerm;43282;47.188;8.896;2023-02-01T02:45:28;41.26;37.88;46.38;;
57439;Laerm;43282;47.188;8.896;2023-02-01T02:53:47;41.37;37.12;51.56;;
57439;Laerm;43282;47.188;8.896;2023-02-01T02:56:32;47.75;37.70;63.30;;
57439;Laerm;43282;47.188;8.896;2023-02-01T02:59:17;45.08;37.32;61.69;;
57439;Laerm;43282;47.188;8.896;2023-02-01T03:02:03;42.81;38.81;51.37;;
57439;Laerm;43282;47.188;8.896;2023-02-01T03:04:51;43.00;39.08;50.90;;
57439;Laerm;43282;47.188;8.896;2023-02-01T03:10:05;49.59;39.92;63.36;;
57439;Laerm;43282;47.188;8.896;2023-02-01T03:12:33;56.49;39.58;75.12;;
57439;Laerm;43282;47.188;8.896;2023-02-01T03:15:19;44.57;39.70;60.74;;
57439;Laerm;43282;47.188;8.896;2023-02-01T03:17:47;48.25;39.70;65.16;;
57439;Laerm;43282;47.188;8.896;2023-02-01T03:20:13;42.10;37.70;50.05;;
57439;Laerm;43282;47.188;8.896;2023-02-01T03:22:39;52.22;39.58;66.57;;
57439;Laerm;43282;47.188;8.896;2023-02-01T03:25:16;48.23;39.70;63.85;;
57439;Laerm;43282;47.188;8.896;2023-02-01T03:27:55;42.64;38.95;53.95;;
57439;Laerm;43282;47.188;8.896;2023-02-01T03:30:27;47.04;38.67;64.20;;
57439;Laerm;43282;47.188;8.896;2023-02-01T03:32:58;41.75;38.02;49.15;;
57439;Laerm;43282;47.188;8.896;2023-02-01T03:38:01;43.78;36.45;58.51;;
57439;Laerm;43282;47.188;8.896;2023-02-01T03:40:27;45.94;38.21;63.01;;
57439;Laerm;43282;47.188;8.896;2023-02-01T03:42:56;48.84;39.08;66.57;;
57439;Laerm;43282;47.188;8.896;2023-02-01T03:45:29;55.26;39.21;69.07;;
57439;Laerm;43282;47.188;8.896;2023-02-01T03:47:56;45.46;40.13;59.88;;
57439;Laerm;43282;47.188;8.896;2023-02-01T03:50:24;49.43;40.03;67.26;;
57439;Laerm;43282;47.188;8.896;2023-02-01T03:55:19;48.80;38.52;62.99;;
57439;Laerm;43282;47.188;8.896;2023-02-01T03:57:52;51.38;37.88;68.37;;
57439;Laerm;43282;47.188;8.896;2023-02-01T04:00:21;44.98;37.32;59.44;;
57439;Laerm;43282;47.188;8.896;2023-02-01T04:02:47;44.40;39.08;54.53;;
57439;Laerm;43282;47.188;8.896;2023-02-01T04:05:12;48.11;40.89;61.37;;
57439;Laerm;43282;47.188;8.896;2023-02-01T04:07:38;51.42;42.29;66.41;;
57439;Laerm;43282;47.188;8.896;2023-02-01T04:10:03;49.03;42.29;63.43;;
57439;Laerm;43282;47.188;8.896;2023-02-01T04:12:29;47.07;42.35;56.88;;
57439;Laerm;43282;47.188;8.896;2023-02-01T04:14:54;65.12;42.03;83.69;;
57439;Laerm;43282;47.188;8.896;2023-02-01T04:17:19;50.39;42.59;65.76;;
57439;Laerm;43282;47.188;8.896;2023-02-01T04:19:45;51.86;43.14;65.87;;
57439;Laerm;43282;47.188;8.896;2023-02-01T04:22:10;54.14;43.68;68.77;;
57439;Laerm;43282;47.188;8.896;2023-02-01T04:24:37;52.15;44.43;66.54;;
57439;Laerm;43282;47.188;8.896;2023-02-01T04:27:02;55.31;43.77;69.15;;
57439;Laerm;43282;47.188;8.896;2023-02-01T04:29:27;53.33;43.39;62.69;;
57439;Laerm;43282;47.188;8.896;2023-02-01T04:31:53;56.00;46.30;68.11;;
57439;Laerm;43282;47.188;8.896;2023-02-01T04:34:18;59.00;45.14;74.41;;
57439;Laerm;43282;47.188;8.896;2023-02-01T04:36:43;55.55;44.51;65.64;;
57439;Laerm;43282;47.188;8.896;2023-02-01T04:39:09;57.09;45.83;67.08;;
57439;Laerm;43282;47.188;8.896;2023-02-01T04:41:35;56.73;47.40;64.62;;
57439;Laerm;43282;47.188;8.896;2023-02-01T04:44:00;56.64;47.06;67.13;;
57439;Laerm;43282;47.188;8.896;2023-02-01T04:46:25;57.79;45.57;67.42;;
57439;Laerm;43282;47.188;8.896;2023-02-01T04:48:51;56.81;47.57;67.81;;
57439;Laerm;43282;47.188;8.896;2023-02-01T04:51:16;54.38;46.07;65.69;;
57439;Laerm;43282;47.188;8.896;2023-02-01T04:53:43;56.98;45.04;71.77;;
57439;Laerm;43282;47.188;8.896;2023-02-01T04:56:08;55.21;46.23;69.17;;
57439;Laerm;43282;47.188;8.896;2023-02-01T04:58:33;54.74;47.44;63.74;;
57439;Laerm;43282;47.188;8.896;2023-02-01T05:00:59;55.98;47.54;67.60;;
57439;Laerm;43282;47.188;8.896;2023-02-01T05:03:29;57.49;46.91;74.01;;
57439;Laerm;43282;47.188;8.896;2023-02-01T05:05:54;55.86;46.93;66.14;;
57439;Laerm;43282;47.188;8.896;2023-02-01T05:08:19;56.85;43.77;72.58;;
57439;Laerm;43282;47.188;8.896;2023-02-01T05:10:47;58.70;43.68;76.65;;
57439;Laerm;43282;47.188;8.896;2023-02-01T05:13:12;53.65;43.58;66.98;;
57439;Laerm;43282;47.188;8.896;2023-02-01T05:15:56;54.48;43.86;67.97;;
57439;Laerm;43282;47.188;8.896;2023-02-01T05:18:21;55.14;45.17;69.97;;
57439;Laerm;43282;47.188;8.896;2023-02-01T05:20:47;55.73;43.09;67.02;;
57439;Laerm;43282;47.188;8.896;2023-02-01T05:23:12;59.34;44.07;73.12;;
57439;Laerm;43282;47.188;8.896;2023-02-01T05:25:37;56.53;43.68;69.58;;
57439;Laerm;43282;47.188;8.896;2023-02-01T05:28:03;55.89;43.86;68.91;;
57439;Laerm;43282;47.188;8.896;2023-02-01T05:30:28;54.06;43.81;69.00;;
57439;Laerm;43282;47.188;8.896;2023-02-01T05:32:53;58.35;45.14;71.51;;
57439;Laerm;43282;47.188;8.896;2023-02-01T05:35:19;57.97;44.43;67.16;;
57439;Laerm;43282;47.188;8.896;2023-02-01T05:37:44;60.07;49.15;68.34;;
57439;Laerm;43282;47.188;8.896;2023-02-01T05:40:10;60.32;50.80;73.63;;
57439;Laerm;43282;47.188;8.896;2023-02-01T05:42:35;60.85;53.16;77.81;;
57439;Laerm;43282;47.188;8.896;2023-02-01T05:45:00;62.11;54.33;72.85;;
57439;Laerm;43282;47.188;8.896;2023-02-01T05:47:26;59.30;50.08;67.15;;
57439;Laerm;43282;47.188;8.896;2023-02-01T05:49:51;62.98;53.50;73.93;;
57439;Laerm;43282;47.188;8.896;2023-02-01T05:52:16;59.22;50.49;67.82;;
57439;Laerm;43282;47.188;8.896;2023-02-01T05:54:45;60.73;52.08;73.40;;
57439;Laerm;43282;47.188;8.896;2023-02-01T05:57:11;58.03;49.82;67.99;;
57439;Laerm;43282;47.188;8.896;2023-02-01T05:59:37;59.91;49.50;70.38;;
57439;Laerm;43282;47.188;8.896;2023-02-01T06:02:06;59.31;51.14;66.96;;
57439;Laerm;43282;47.188;8.896;2023-02-01T06:04:31;58.34;48.48;67.89;;
57439;Laerm;43282;47.188;8.896;2023-02-01T06:06:57;61.13;47.84;81.80;;
57439;Laerm;43282;47.188;8.896;2023-02-01T06:09:22;60.39;48.58;77.30;;
57439;Laerm;43282;47.188;8.896;2023-02-01T06:11:47;58.26;48.74;73.78;;
57439;Laerm;43282;47.188;8.896;2023-02-01T06:14:13;60.19;51.85;68.33;;
57439;Laerm;43282;47.188;8.896;2023-02-01T06:16:38;61.73;51.69;75.39;;
57439;Laerm;43282;47.188;8.896;2023-02-01T06:19:03;61.91;53.73;74.11;;
57439;Laerm;43282;47.188;8.896;2023-02-01T06:21:29;63.75;52.04;77.60;;
57439;Laerm;43282;47.188;8.896;2023-02-01T06:23:54;58.60;49.40;70.18;;
57439;Laerm;43282;47.188;8.896;2023-02-01T06:26:20;61.80;53.61;70.40;;
57439;Laerm;43282;47.188;8.896;2023-02-01T06:28:45;60.18;52.33;70.81;;
57439;Laerm;43282;47.188;8.896;2023-02-01T06:31:10;61.81;53.64;71.99;;
57439;Laerm;43282;47.188;8.896;2023-02-01T06:33:37;59.91;51.13;71.95;;
57439;Laerm;43282;47.188;8.896;2023-02-01T06:36:03;60.24;50.87;70.45;;
57439;Laerm;43282;47.188;8.896;2023-02-01T06:38:29;59.47;49.35;73.14;;
57439;Laerm;43282;47.188;8.896;2023-02-01T06:40:55;59.61;50.63;71.04;;
57439;Laerm;43282;47.188;8.896;2023-02-01T06:43:21;59.69;48.02;77.43;;
57439;Laerm;43282;47.188;8.896;2023-02-01T06:45:47;60.01;48.81;75.48;;
57439;Laerm;43282;47.188;8.896;2023-02-01T06:48:12;58.81;47.00;70.23;;
57439;Laerm;43282;47.188;8.896;2023-02-01T06:50:37;56.36;45.27;68.63;;
57439;Laerm;43282;47.188;8.896;2023-02-01T06:53:03;58.10;46.13;69.38;;
57439;Laerm;43282;47.188;8.896;2023-02-01T06:55:28;57.01;45.36;67.36;;
57439;Laerm;43282;47.188;8.896;2023-02-01T06:57:54;58.61;44.73;70.39;;
57439;Laerm;43282;47.188;8.896;2023-02-01T07:00:19;56.89;47.57;67.19;;
57439;Laerm;43282;47.188;8.896;2023-02-01T07:02:45;59.84;49.10;72.75;;
57439;Laerm;43282;47.188;8.896;2023-02-01T07:05:10;66.04;52.21;85.27;;
57439;Laerm;43282;47.188;8.896;2023-02-01T07:07:35;60.34;51.43;71.38;;
57439;Laerm;43282;47.188;8.896;2023-02-01T07:10:00;60.11;51.59;74.82;;
57439;Laerm;43282;47.188;8.896;2023-02-01T07:12:26;61.59;53.90;73.50;;
57439;Laerm;43282;47.188;8.896;2023-02-01T07:14:51;63.42;55.13;75.10;;
57439;Laerm;43282;47.188;8.896;2023-02-01T07:17:16;64.17;54.25;75.28;;
57439;Laerm;43282;47.188;8.896;2023-02-01T07:19:42;63.46;55.17;77.03;;
57439;Laerm;43282;47.188;8.896;2023-02-01T07:22:07;61.85;53.32;76.56;;
57439;Laerm;43282;47.188;8.896;2023-02-01T07:24:33;60.76;53.05;70.60;;
57439;Laerm;43282;47.188;8.896;2023-02-01T07:26:58;61.59;53.28;70.67;;
57439;Laerm;43282;47.188;8.896;2023-02-01T07:29:24;61.48;50.75;78.86;;
57439;Laerm;43282;47.188;8.896;2023-02-01T07:31:49;61.42;51.91;74.79;;
57439;Laerm;43282;47.188;8.896;2023-02-01T07:34:14;61.27;48.01;77.41;;
57439;Laerm;43282;47.188;8.896;2023-02-01T07:36:39;58.92;49.02;68.95;;
57439;Laerm;43282;47.188;8.896;2023-02-01T07:39:05;58.64;48.49;68.64;;
57439;Laerm;43282;47.188;8.896;2023-02-01T07:41:30;59.76;47.50;75.98;;
57439;Laerm;43282;47.188;8.896;2023-02-01T07:43:56;57.99;47.46;74.85;;
57439;Laerm;43282;47.188;8.896;2023-02-01T07:46:22;59.05;46.78;74.85;;
57439;Laerm;43282;47.188;8.896;2023-02-01T07:48:47;60.63;47.02;75.34;;
57439;Laerm;43282;47.188;8.896;2023-02-01T07:51:13;59.34;45.72;73.99;;
57439;Laerm;43282;47.188;8.896;2023-02-01T07:53:39;62.68;44.80;78.04;;
57439;Laerm;43282;47.188;8.896;2023-02-01T07:56:08;62.25;44.35;77.61;;
57439;Laerm;43282;47.188;8.896;2023-02-01T07:58:35;60.30;43.99;75.38;;
57439;Laerm;43282;47.188;8.896;2023-02-01T08:01:00;57.43;44.35;70.59;;
57439;Laerm;43282;47.188;8.896;2023-02-01T08:03:44;57.34;44.35;70.00;;
57439;Laerm;43282;47.188;8.896;2023-02-01T08:06:10;59.39;43.72;75.19;;
57439;Laerm;43282;47.188;8.896;2023-02-01T08:08:35;55.99;44.58;65.50;;
57439;Laerm;43282;47.188;8.896;2023-02-01T08:11:01;55.63;45.54;64.45;;
57439;Laerm;43282;47.188;8.896;2023-02-01T08:13:27;57.41;47.16;67.77;;
57439;Laerm;43282;47.188;8.896;2023-02-01T08:15:52;59.40;47.06;73.88;;
57439;Laerm;43282;47.188;8.896;2023-02-01T08:18:22;59.65;48.42;73.08;;
57439;Laerm;43282;47.188;8.896;2023-02-01T08:20:47;59.29;48.18;70.88;;
57439;Laerm;43282;47.188;8.896;2023-02-01T08:23:12;57.30;49.00;65.34;;
57439;Laerm;43282;47.188;8.896;2023-02-01T08:25:38;61.94;49.03;77.46;;
57439;Laerm;43282;47.188;8.896;2023-02-01T08:28:04;60.97;48.85;76.18;;
57439;Laerm;43282;47.188;8.896;2023-02-01T08:30:29;61.80;49.71;79.05;;
57439;Laerm;43282;47.188;8.896;2023-02-01T08:32:55;58.40;47.65;65.81;;
57439;Laerm;43282;47.188;8.896;2023-02-01T08:35:20;59.95;48.03;74.84;;
57439;Laerm;43282;47.188;8.896;2023-02-01T08:37:45;61.12;47.48;74.95;;
57439;Laerm;43282;47.188;8.896;2023-02-01T08:40:11;60.27;46.62;75.17;;
57439;Laerm;43282;47.188;8.896;2023-02-01T08:42:36;59.95;45.42;76.44;;
57439;Laerm;43282;47.188;8.896;2023-02-01T08:45:17;60.63;44.27;75.96;;
57439;Laerm;43282;47.188;8.896;2023-02-01T08:47:43;61.42;44.65;78.13;;
57439;Laerm;43282;47.188;8.896;2023-02-01T08:50:09;59.58;46.15;73.05;;
57439;Laerm;43282;47.188;8.896;2023-02-01T08:52:35;57.14;45.83;69.18;;
57439;Laerm;43282;47.188;8.896;2023-02-01T08:55:00;60.77;48.67;72.13;;
57439;Laerm;43282;47.188;8.896;2023-02-01T08:57:25;59.78;48.10;72.79;;
57439;Laerm;43282;47.188;8.896;2023-02-01T08:59:51;58.64;45.23;72.46;;
57439;Laerm;43282;47.188;8.896;2023-02-01T09:02:16;60.68;48.49;74.46;;
57439;Laerm;43282;47.188;8.896;2023-02-01T09:04:42;62.32;50.22;75.13;;
57439;Laerm;43282;47.188;8.896;2023-02-01T09:07:08;58.70;51.53;68.49;;
57439;Laerm;43282;47.188;8.896;2023-02-01T09:09:35;65.40;53.26;89.25;;
57439;Laerm;43282;47.188;8.896;2023-02-01T09:12:01;60.25;52.38;72.53;;
57439;Laerm;43282;47.188;8.896;2023-02-01T09:14:27;61.96;51.91;73.45;;
57439;Laerm;43282;47.188;8.896;2023-02-01T09:16:52;62.59;52.48;73.44;;
57439;Laerm;43282;47.188;8.896;2023-02-01T09:19:17;56.95;46.89;66.03;;
57439;Laerm;43282;47.188;8.896;2023-02-01T09:21:43;61.08;47.88;78.27;;
57439;Laerm;43282;47.188;8.896;2023-02-01T09:24:10;62.91;49.34;78.33;;
57439;Laerm;43282;47.188;8.896;2023-02-01T09:26:35;56.39;45.99;65.68;;
57439;Laerm;43282;47.188;8.896;2023-02-01T09:29:00;61.44;46.64;76.30;;
57439;Laerm;43282;47.188;8.896;2023-02-01T09:31:26;57.00;45.33;69.95;;
57439;Laerm;43282;47.188;8.896;2023-02-01T09:33:51;61.00;46.84;73.09;;
57439;Laerm;43282;47.188;8.896;2023-02-01T09:36:16;62.89;44.94;77.22;;
57439;Laerm;43282;47.188;8.896;2023-02-01T09:38:44;61.59;44.23;75.69;;
57439;Laerm;43282;47.188;8.896;2023-02-01T09:43:56;59.79;45.80;74.91;;
57439;Laerm;43282;47.188;8.896;2023-02-01T09:46:28;59.19;44.51;72.09;;
57439;Laerm;43282;47.188;8.896;2023-02-01T09:48:55;60.42;49.66;76.40;;
57439;Laerm;43282;47.188;8.896;2023-02-01T09:51:23;60.21;49.64;75.15;;
57439;Laerm;43282;47.188;8.896;2023-02-01T09:54:00;60.70;51.35;73.61;;
57439;Laerm;43282;47.188;8.896;2023-02-01T09:56:40;62.23;49.18;77.43;;
57439;Laerm;43282;47.188;8.896;2023-02-01T09:59:18;62.35;50.16;77.49;;
57439;Laerm;43282;47.188;8.896;2023-02-01T10:01:47;62.60;51.33;77.36;;
57439;Laerm;43282;47.188;8.896;2023-02-01T10:04:13;58.73;48.74;67.79;;
57439;Laerm;43282;47.188;8.896;2023-02-01T10:09:20;61.16;46.57;75.65;;
57439;Laerm;43282;47.188;8.896;2023-02-01T10:17:01;58.20;45.60;68.36;;
57439;Laerm;43282;47.188;8.896;2023-02-01T10:22:08;60.45;46.73;74.84;;
57439;Laerm;43282;47.188;8.896;2023-02-01T10:27:08;61.20;48.18;77.09;;
57439;Laerm;43282;47.188;8.896;2023-02-01T10:29:37;58.52;48.36;69.49;;
57439;Laerm;43282;47.188;8.896;2023-02-01T10:32:09;59.78;51.27;74.66;;
57439;Laerm;43282;47.188;8.896;2023-02-01T10:34:37;61.18;51.09;74.00;;
57439;Laerm;43282;47.188;8.896;2023-02-01T10:39:33;61.97;49.00;73.67;;
57439;Laerm;43282;47.188;8.896;2023-02-01T10:41:59;60.64;51.62;72.77;;
57439;Laerm;43282;47.188;8.896;2023-02-01T10:44:28;60.73;50.50;71.09;;
57439;Laerm;43282;47.188;8.896;2023-02-01T10:46:55;61.51;50.98;77.87;;
57439;Laerm;43282;47.188;8.896;2023-02-01T10:49:26;60.81;50.13;75.58;;
57439;Laerm;43282;47.188;8.896;2023-02-01T10:51:56;60.18;49.83;69.63;;
57439;Laerm;43282;47.188;8.896;2023-02-01T10:54:36;57.46;46.02;70.12;;
57439;Laerm;43282;47.188;8.896;2023-02-01T10:57:05;62.03;47.68;75.01;;
57439;Laerm;43282;47.188;8.896;2023-02-01T10:59:31;59.76;47.10;72.08;;
57439;Laerm;43282;47.188;8.896;2023-02-01T11:02:02;61.51;47.36;77.20;;
57439;Laerm;43282;47.188;8.896;2023-02-01T11:04:32;58.86;45.27;69.55;;
57439;Laerm;43282;47.188;8.896;2023-02-01T11:07:19;58.95;44.94;70.07;;
57439;Laerm;43282;47.188;8.896;2023-02-01T11:09:49;65.90;47.07;79.23;;
57439;Laerm;43282;47.188;8.896;2023-02-01T11:12:28;60.62;45.75;73.89;;
57439;Laerm;43282;47.188;8.896;2023-02-01T11:14:58;59.47;45.23;71.59;;
57439;Laerm;43282;47.188;8.896;2023-02-01T11:17:26;56.03;45.07;67.31;;
57439;Laerm;43282;47.188;8.896;2023-02-01T11:20:00;59.92;49.06;74.35;;
57439;Laerm;43282;47.188;8.896;2023-02-01T11:22:26;58.89;50.51;71.69;;
57439;Laerm;43282;47.188;8.896;2023-02-01T11:24:52;58.68;48.69;68.68;;
57439;Laerm;43282;47.188;8.896;2023-02-01T11:27:19;59.38;45.66;77.60;;
57439;Laerm;43282;47.188;8.896;2023-02-01T11:29:46;59.71;45.60;81.69;;
57439;Laerm;43282;47.188;8.896;2023-02-01T11:32:13;58.03;46.66;71.95;;
57439;Laerm;43282;47.188;8.896;2023-02-01T11:34:40;55.69;45.91;68.48;;
57439;Laerm;43282;47.188;8.896;2023-02-01T11:37:28;56.05;46.28;71.34;;
57439;Laerm;43282;47.188;8.896;2023-02-01T11:39:55;57.05;45.97;69.12;;
57439;Laerm;43282;47.188;8.896;2023-02-01T11:42:21;57.24;46.78;67.75;;
57439;Laerm;43282;47.188;8.896;2023-02-01T11:44:46;59.99;45.97;75.26;;
57439;Laerm;43282;47.188;8.896;2023-02-01T11:47:19;60.65;49.52;74.25;;
57439;Laerm;43282;47.188;8.896;2023-02-01T11:49:45;61.34;47.38;82.51;;
57439;Laerm;43282;47.188;8.896;2023-02-01T11:52:17;56.84;44.90;68.36;;
57439;Laerm;43282;47.188;8.896;2023-02-01T11:57:36;55.68;44.65;65.63;;
57439;Laerm;43282;47.188;8.896;2023-02-01T12:12:54;56.46;45.54;67.85;;
57439;Laerm;43282;47.188;8.896;2023-02-01T12:15:24;58.11;44.97;71.79;;
57439;Laerm;43282;47.188;8.896;2023-02-01T12:26:23;59.36;48.64;71.42;;
57439;Laerm;43282;47.188;8.896;2023-02-01T12:36:57;77.53;47.55;94.57;;
57439;Laerm;43282;47.188;8.896;2023-02-01T12:47:05;76.23;48.49;98.48;;
57439;Laerm;43282;47.188;8.896;2023-02-01T12:49:38;78.80;46.57;96.67;;
57439;Laerm;43282;47.188;8.896;2023-02-01T12:52:09;80.05;46.07;96.55;;
57439;Laerm;43282;47.188;8.896;2023-02-01T12:57:01;61.64;45.83;75.61;;
57439;Laerm;43282;47.188;8.896;2023-02-01T12:59:42;57.30;45.39;72.77;;
57439;Laerm;43282;47.188;8.896;2023-02-01T13:05:04;58.82;46.89;74.13;;
57439;Laerm;43282;47.188;8.896;2023-02-01T13:10:03;58.74;44.43;74.66;;
57439;Laerm;43282;47.188;8.896;2023-02-01T13:12:33;61.00;46.84;78.53;;
57439;Laerm;43282;47.188;8.896;2023-02-01T13:15:11;58.17;46.76;70.12;;
57439;Laerm;43282;47.188;8.896;2023-02-01T13:17:38;77.15;49.02;89.67;;
57439;Laerm;43282;47.188;8.896;2023-02-01T13:20:06;79.46;50.34;91.16;;
57439;Laerm;43282;47.188;8.896;2023-02-01T13:22:39;75.33;46.76;86.61;;
57439;Laerm;43282;47.188;8.896;2023-02-01T13:27:38;59.88;46.69;74.09;;
57439;Laerm;43282;47.188;8.896;2023-02-01T13:30:26;55.29;45.80;65.43;;
57439;Laerm;43282;47.188;8.896;2023-02-01T13:35:24;59.13;44.51;74.22;;
57439;Laerm;43282;47.188;8.896;2023-02-01T13:40:30;58.68;45.45;71.42;;
57439;Laerm;43282;47.188;8.896;2023-02-01T13:43:01;66.49;46.82;84.26;;
57439;Laerm;43282;47.188;8.896;2023-02-01T13:45:28;59.81;48.02;76.37;;
57439;Laerm;43282;47.188;8.896;2023-02-01T13:47:56;58.75;47.40;72.29;;
57439;Laerm;43282;47.188;8.896;2023-02-01T13:50:32;62.01;48.46;77.04;;
57439;Laerm;43282;47.188;8.896;2023-02-01T13:53:13;60.98;45.69;73.23;;
57439;Laerm;43282;47.188;8.896;2023-02-01T13:55:43;60.34;48.54;74.26;;
57439;Laerm;43282;47.188;8.896;2023-02-01T13:58:14;58.91;47.38;72.03;;
57439;Laerm;43282;47.188;8.896;2023-02-01T14:00:41;57.33;48.84;67.70;;
57439;Laerm;43282;47.188;8.896;2023-02-01T14:03:09;79.15;48.81;91.83;;
57439;Laerm;43282;47.188;8.896;2023-02-01T14:21:17;58.61;45.33;71.59;;
57439;Laerm;43282;47.188;8.896;2023-02-01T14:23:47;60.39;48.18;72.95;;
57439;Laerm;43282;47.188;8.896;2023-02-01T14:26:14;55.61;45.04;65.53;;
57439;Laerm;43282;47.188;8.896;2023-02-01T14:28:41;59.91;47.24;73.79;;
57439;Laerm;43282;47.188;8.896;2023-02-01T14:33:54;63.59;46.15;79.83;;
57439;Laerm;43282;47.188;8.896;2023-02-01T14:36:20;60.73;46.62;73.85;;
57439;Laerm;43282;47.188;8.896;2023-02-01T14:38:49;60.55;46.91;75.39;;
57439;Laerm;43282;47.188;8.896;2023-02-01T14:43:49;62.25;49.00;78.56;;
57439;Laerm;43282;47.188;8.896;2023-02-01T14:46:15;60.00;47.90;73.97;;
57439;Laerm;43282;47.188;8.896;2023-02-01T14:48:41;58.22;46.91;72.97;;
57439;Laerm;43282;47.188;8.896;2023-02-01T14:51:08;57.20;47.00;68.39;;
57439;Laerm;43282;47.188;8.896;2023-02-01T14:53:36;57.10;45.23;71.75;;
57439;Laerm;43282;47.188;8.896;2023-02-01T14:56:06;58.19;47.77;69.23;;
57439;Laerm;43282;47.188;8.896;2023-02-01T15:01:01;60.19;46.15;74.28;;
57439;Laerm;43282;47.188;8.896;2023-02-01T15:05:58;58.77;46.89;71.77;;
57439;Laerm;43282;47.188;8.896;2023-02-01T15:08:33;59.66;46.25;73.20;;
57439;Laerm;43282;47.188;8.896;2023-02-01T15:11:02;58.77;46.28;73.77;;
57439;Laerm;43282;47.188;8.896;2023-02-01T15:13:29;56.75;47.06;67.99;;
57439;Laerm;43282;47.188;8.896;2023-02-01T15:16:05;59.97;47.36;73.23;;
57439;Laerm;43282;47.188;8.896;2023-02-01T15:18:33;59.36;48.58;72.42;;
57439;Laerm;43282;47.188;8.896;2023-02-01T15:21:00;58.59;48.00;75.55;;
57439;Laerm;43282;47.188;8.896;2023-02-01T15:23:25;58.68;48.46;69.43;;
57439;Laerm;43282;47.188;8.896;2023-02-01T15:25:51;59.71;49.85;72.57;;
57439;Laerm;43282;47.188;8.896;2023-02-01T15:28:16;62.47;50.18;84.36;;
57439;Laerm;43282;47.188;8.896;2023-02-01T15:30:53;58.74;50.85;68.89;;
57439;Laerm;43282;47.188;8.896;2023-02-01T15:33:18;58.58;48.95;70.67;;
57439;Laerm;43282;47.188;8.896;2023-02-01T15:35:46;59.36;50.33;70.81;;
57439;Laerm;43282;47.188;8.896;2023-02-01T15:38:45;58.12;50.48;66.40;;
57439;Laerm;43282;47.188;8.896;2023-02-01T15:43:30;59.28;47.93;74.52;;
57439;Laerm;43282;47.188;8.896;2023-02-01T15:46:01;58.31;48.78;73.28;;
57439;Laerm;43282;47.188;8.896;2023-02-01T15:48:29;58.65;48.45;73.85;;
57439;Laerm;43282;47.188;8.896;2023-02-01T15:50:56;63.30;50.25;81.67;;
57439;Laerm;43282;47.188;8.896;2023-02-01T15:53:23;57.95;50.23;66.29;;
57439;Laerm;43282;47.188;8.896;2023-02-01T15:55:53;57.85;48.21;67.68;;